This is the latest recevied weather packets stored in our database for station/object KJ4EWA. If no packets are shown the sender has not sent any weather packets the latest 10 day(s).
| Time | Temp. | Humidity | Pressure | Rain* | Wind** | Luminosity | Snow |
|---|---|---|---|---|---|---|---|
| 1777581914 | 26.67° C | 79% | 1014.1 hPa | 0 mm | - | 202 W/m² | - |
| 1777581608 | 27.22° C | 85% | 1014.2 hPa | 0 mm | - | 212 W/m² | - |
| 1777581303 | 26.67° C | 79% | 1014.3 hPa | 0 mm | - | 314 W/m² | - |
| 1777580998 | 26.67° C | 80% | 1014.1 hPa | 0 mm | - | 439 W/m² | - |
| 1777580698 | 26.11° C | 83% | 1014.4 hPa | 0 mm | - | 268 W/m² | - |
| 1777580394 | 27.22° C | 84% | 1014.6 hPa | 0 mm | - | 481 W/m² | - |
| 1777580090 | 26.67° C | 80% | 1014.5 hPa | 0 mm | - | 380 W/m² | - |
| 1777579787 | 26.67° C | 81% | 1014.5 hPa | 0 mm | - | 464 W/m² | - |
| 1777579484 | 25.56° C | 86% | 1014.7 hPa | 0 mm | - | 230 W/m² | - |
| 1777579180 | 25° C | 84% | 1014.7 hPa | 0 mm | - | 214 W/m² | - |
| 1777578875 | 25° C | 84% | 1015 hPa | 0 mm | - | 181 W/m² | - |
| 1777578571 | 25.56° C | 83% | 1014.8 hPa | 0 mm | - | 225 W/m² | - |
| 1777578265 | 25.56° C | 86% | 1014.6 hPa | 0 mm | - | 289 W/m² | - |
| 1777577962 | 26.11° C | 86% | 1014.8 hPa | 0 mm | - | 223 W/m² | - |
| 1777577657 | 26.11° C | 83% | 1014.7 hPa | 0 mm | - | 221 W/m² | - |
| 1777577355 | 26.11° C | 82% | 1014.8 hPa | 0 mm | - | 245 W/m² | - |
| 1777577050 | 26.11° C | 82% | 1014.9 hPa | 0 mm | - | 236 W/m² | - |
| 1777576748 | 26.11° C | 85% | 1014.8 hPa | 0 mm | - | 243 W/m² | - |
| 1777576446 | 25.56° C | 83% | 1015.1 hPa | 0 mm | - | 215 W/m² | - |
| 1777576144 | 25.56° C | 87% | 1014.8 hPa | 0 mm | - | 226 W/m² | - |
| 1777575838 | 25.56° C | 82% | 1015 hPa | 0 mm | - | 225 W/m² | - |
| 1777575536 | 26.11° C | 82% | 1015.1 hPa | 0 mm | - | 226 W/m² | - |
| 1777575231 | 26.67° C | 82% | 1014.8 hPa | 0 mm | - | 531 W/m² | - |
| 1777574927 | 26.67° C | 85% | 1014.9 hPa | 0 mm | - | 354 W/m² | - |
| 1777574624 | 25.56° C | 83% | 1015.3 hPa | 0 mm | - | 319 W/m² | - |
* Rain latest hour (hover to see other rain measurements)
** Current wind speed in m/s (hover to see current wind gust speed)